Cobourg, Canada
Current Conditions -  °F | °C
As of 8:00 PM on Tuesday 21 Oct 2014 (Local Time) from CYPQ Reporting Station
Light Rain Light Rain  
Wind Chill: 35°   Ceiling: 1400
Heat Index: 43°   Visibility: 9mi
Dew Point: 41°   Wind: 15mph
Humidity: 93%   Direction: 30°NNE
Pressure: 30.1"   Gusts: 21mph
Location:  43.96°N, 78.17°W
Report Text: CYPQ 220000Z AUTO 03013G18KT 9SM -RA OVC014 06/05 A3010 RMK SLP197
Loading
Personal Weather Stations






























Interactive Weather Map
Tropical Storm Tracking
New forecast layout! Learn more

10-Day Weather Forecast

Advertisements
Track Severe Weather on mobile